Time;durP1;ratioP1;P1;durP2;ratioP2;P2;SDS_P1;SDS_P2;PMS_P1;PMS_P2;Temp;Humidity;BMP_temperature;BMP_pressure;BME280_temperature;BME280_humidity;BME280_pressure;Samples;Min_cycle;Max_cycle;Signal;HPM_P1;HPM_P2
2023/02/03 00:01:00;;;;;;;5.95;3.67;;;;;;;;;;10443247;28;20029;-73
2023/02/03 00:06:01;;;;;;;7.00;3.55;;;;;;;;;;10443038;28;20039;-75
2023/02/03 00:11:02;;;;;;;5.18;3.25;;;;;;;;;;10460226;28;20402;-70
2023/02/03 00:16:05;;;;;;;4.18;3.20;;;;;;;;;;10429746;28;20031;-69
2023/02/03 00:21:05;;;;;;;4.68;3.40;;;;;;;;;;10442430;28;20021;-70
2023/02/03 00:26:10;;;;;;;7.28;3.83;;;;;;;;;;10442750;28;20020;-73
2023/02/03 00:31:18;;;;;;;4.63;3.10;;;;;;;;;;10441881;28;20025;-73
2023/02/03 00:36:18;;;;;;;4.63;3.45;;;;;;;;;;10436654;28;20044;-76
2023/02/03 00:41:19;;;;;;;7.80;4.05;;;;;;;;;;10407255;28;20034;-70
2023/02/03 00:46:19;;;;;;;7.20;4.53;;;;;;;;;;10438744;28;20107;-73
2023/02/03 00:51:20;;;;;;;10.43;4.55;;;;;;;;;;10442194;28;20533;-73
2023/02/03 00:56:20;;;;;;;7.93;4.63;;;;;;;;;;10458603;28;20033;-74
2023/02/03 01:01:20;;;;;;;7.43;4.60;;;;;;;;;;10442678;28;20021;-74
2023/02/03 01:06:21;;;;;;;6.93;4.63;;;;;;;;;;10441677;28;20025;-75
2023/02/03 01:11:22;;;;;;;4.85;4.13;;;;;;;;;;10441332;28;20605;-72
2023/02/03 01:16:23;;;;;;;6.43;3.92;;;;;;;;;;10441161;28;20063;-74
2023/02/03 01:21:24;;;;;;;6.25;3.53;;;;;;;;;;10457147;28;20121;-74
2023/02/03 01:26:25;;;;;;;6.22;3.17;;;;;;;;;;10440861;28;20247;-73
2023/02/03 01:31:30;;;;;;;3.70;2.72;;;;;;;;;;10440180;28;20138;-78
2023/02/03 01:36:31;;;;;;;2.80;2.33;;;;;;;;;;10440755;28;20415;-75
2023/02/03 01:41:33;;;;;;;4.45;2.28;;;;;;;;;;10441466;28;20025;-71
2023/02/03 01:46:38;;;;;;;6.10;2.47;;;;;;;;;;10400412;28;20601;-74
2023/02/03 01:51:40;;;;;;;4.65;2.47;;;;;;;;;;10443325;28;20017;-72
2023/02/03 01:56:42;;;;;;;2.50;1.92;;;;;;;;;;10440498;28;20358;-72
2023/02/03 02:01:43;;;;;;;2.65;2.20;;;;;;;;;;10439719;28;20466;-71
2023/02/03 02:06:46;;;;;;;3.90;2.45;;;;;;;;;;10440116;28;20024;-74
2023/02/03 02:11:47;;;;;;;3.55;2.40;;;;;;;;;;10439942;28;20059;-73
2023/02/03 02:17:22;;;;;;;2.88;2.25;;;;;;;;;;10440870;28;20881;-73
2023/02/03 02:22:29;;;;;;;6.47;2.97;;;;;;;;;;10349880;28;20141;-76
2023/02/03 02:27:32;;;;;;;3.13;2.72;;;;;;;;;;10439945;28;20491;-73
2023/02/03 02:32:38;;;;;;;4.35;3.63;;;;;;;;;;10441522;28;20013;-78
2023/02/03 02:37:42;;;;;;;5.15;3.17;;;;;;;;;;10439678;28;20025;-69
2023/02/03 02:42:55;;;;;;;4.55;3.70;;;;;;;;;;10439675;28;20017;-71
2023/02/03 02:47:58;;;;;;;4.25;3.30;;;;;;;;;;10445443;28;20109;-74
2023/02/03 02:52:58;;;;;;;8.20;3.28;;;;;;;;;;10426313;28;20483;-75
2023/02/03 02:58:10;;;;;;;4.03;3.20;;;;;;;;;;10445806;28;20017;-75
2023/02/03 03:03:15;;;;;;;4.50;3.15;;;;;;;;;;10446130;28;20515;-76
2023/02/03 03:08:17;;;;;;;3.17;2.85;;;;;;;;;;10444952;28;20025;-73
2023/02/03 03:13:21;;;;;;;5.97;3.42;;;;;;;;;;10446515;28;20020;-71
2023/02/03 03:18:27;;;;;;;5.57;2.92;;;;;;;;;;10445432;28;20017;-76
2023/02/03 03:23:30;;;;;;;5.43;3.80;;;;;;;;;;10445020;28;20490;-72
2023/02/03 03:28:35;;;;;;;5.85;3.40;;;;;;;;;;10444397;28;20078;-78
2023/02/03 03:33:35;;;;;;;3.85;3.42;;;;;;;;;;10446673;28;20020;-79
2023/02/03 03:38:39;;;;;;;4.03;3.63;;;;;;;;;;10446704;28;20021;-71
2023/02/03 03:43:42;;;;;;;5.13;4.00;;;;;;;;;;10447820;28;20050;-75
2023/02/03 03:48:54;;;;;;;8.32;3.70;;;;;;;;;;10453291;28;20052;-69
2023/02/03 03:53:56;;;;;;;4.22;3.40;;;;;;;;;;10460820;28;20037;-71
2023/02/03 03:58:58;;;;;;;3.55;2.67;;;;;;;;;;10444636;28;20052;-72
2023/02/03 04:04:01;;;;;;;3.45;2.78;;;;;;;;;;10426988;28;20032;-72
2023/02/03 04:09:01;;;;;;;3.17;2.25;;;;;;;;;;10442832;28;20100;-70
2023/02/03 04:14:02;;;;;;;3.60;2.97;;;;;;;;;;10444321;28;20021;-76
2023/02/03 04:19:02;;;;;;;3.17;2.77;;;;;;;;;;10443756;28;20090;-74
2023/02/03 04:24:02;;;;;;;6.45;3.45;;;;;;;;;;10443029;28;20275;-74
2023/02/03 04:29:03;;;;;;;5.18;3.15;;;;;;;;;;10459030;28;20028;-75
2023/02/03 04:34:04;;;;;;;4.40;3.13;;;;;;;;;;10459363;28;20464;-74
2023/02/03 04:39:04;;;;;;;5.25;3.67;;;;;;;;;;10441522;28;20282;-76
2023/02/03 04:44:04;;;;;;;10.23;3.75;;;;;;;;;;10441373;28;20083;-75
2023/02/03 04:49:05;;;;;;;6.10;3.30;;;;;;;;;;10435024;28;20590;-72
2023/02/03 04:54:05;;;;;;;5.23;3.40;;;;;;;;;;10431603;28;20028;-77
2023/02/03 04:59:05;;;;;;;4.20;3.43;;;;;;;;;;10441862;28;20521;-72
2023/02/03 05:04:06;;;;;;;4.18;3.08;;;;;;;;;;10417291;28;20115;-74
2023/02/03 05:09:06;;;;;;;7.95;3.97;;;;;;;;;;10440185;28;20047;-76
2023/02/03 05:14:07;;;;;;;4.85;4.20;;;;;;;;;;10440378;28;20013;-73
2023/02/03 05:19:07;;;;;;;6.55;4.10;;;;;;;;;;10440924;28;20147;-72
2023/02/03 05:24:07;;;;;;;6.93;4.40;;;;;;;;;;10438294;28;20632;-76
2023/02/03 05:29:10;;;;;;;6.93;4.47;;;;;;;;;;10434995;28;20382;-73
2023/02/03 05:34:10;;;;;;;6.03;5.00;;;;;;;;;;10440458;28;20294;-76
2023/02/03 05:39:11;;;;;;;5.07;4.07;;;;;;;;;;10441376;28;20040;-72
2023/02/03 05:44:11;;;;;;;8.52;5.05;;;;;;;;;;10451049;28;20032;-73
2023/02/03 05:49:11;;;;;;;7.50;4.88;;;;;;;;;;10450709;28;20102;-76
2023/02/03 05:54:12;;;;;;;5.38;4.05;;;;;;;;;;10453828;28;20021;-76
2023/02/03 05:59:12;;;;;;;8.40;4.33;;;;;;;;;;10454334;28;20040;-77
2023/02/03 06:04:12;;;;;;;5.57;4.40;;;;;;;;;;10441333;28;20017;-73
2023/02/03 06:09:13;;;;;;;6.77;4.57;;;;;;;;;;10439941;28;20036;-72
2023/02/03 06:14:13;;;;;;;6.87;4.77;;;;;;;;;;10439939;28;20045;-71
2023/02/03 06:19:13;;;;;;;10.17;4.77;;;;;;;;;;10440623;28;20064;-75
2023/02/03 06:24:13;;;;;;;8.23;4.15;;;;;;;;;;10447374;28;20179;-75
2023/02/03 06:29:14;;;;;;;6.83;4.80;;;;;;;;;;10446491;28;20028;-72
2023/02/03 06:34:14;;;;;;;7.80;5.35;;;;;;;;;;10447145;28;20024;-74
2023/02/03 06:39:14;;;;;;;5.50;4.10;;;;;;;;;;10446329;28;20086;-76
2023/02/03 06:44:15;;;;;;;6.77;4.87;;;;;;;;;;10446551;28;20021;-77
2023/02/03 06:49:16;;;;;;;12.57;5.85;;;;;;;;;;10448148;28;20390;-79
2023/02/03 06:54:16;;;;;;;7.65;3.38;;;;;;;;;;10446436;28;20029;-76
2023/02/03 06:59:17;;;;;;;8.48;4.47;;;;;;;;;;10445565;28;20033;-75
2023/02/03 07:04:17;;;;;;;4.13;3.80;;;;;;;;;;10446358;28;20487;-77
2023/02/03 07:09:17;;;;;;;8.90;4.10;;;;;;;;;;10445335;28;20036;-74
2023/02/03 07:14:17;;;;;;;4.57;3.50;;;;;;;;;;10451370;28;20044;-73
2023/02/03 07:19:18;;;;;;;5.97;2.75;;;;;;;;;;10445064;28;20028;-73
2023/02/03 07:24:18;;;;;;;11.27;4.38;;;;;;;;;;10444543;28;20128;-72
2023/02/03 07:29:18;;;;;;;9.57;4.15;;;;;;;;;;10444600;28;20120;-76
2023/02/03 07:34:18;;;;;;;8.13;4.00;;;;;;;;;;10444484;28;20070;-73
2023/02/03 07:39:19;;;;;;;5.32;3.42;;;;;;;;;;10451906;28;20032;-77
2023/02/03 07:44:19;;;;;;;6.10;3.17;;;;;;;;;;10445415;28;20035;-76
2023/02/03 07:49:19;;;;;;;4.97;2.83;;;;;;;;;;10443575;28;20037;-75
2023/02/03 07:54:19;;;;;;;7.47;3.30;;;;;;;;;;10443883;28;20029;-72
2023/02/03 07:59:20;;;;;;;3.13;2.80;;;;;;;;;;10443756;28;20029;-75
2023/02/03 08:04:21;;;;;;;7.80;3.25;;;;;;;;;;10440247;28;20038;-72
2023/02/03 08:09:21;;;;;;;6.57;2.83;;;;;;;;;;10402242;28;20040;-76
2023/02/03 08:14:22;;;;;;;7.97;2.83;;;;;;;;;;10434864;28;20120;-77
2023/02/03 08:19:23;;;;;;;4.90;3.15;;;;;;;;;;10443170;28;20063;-72
2023/02/03 08:24:23;;;;;;;4.78;2.45;;;;;;;;;;10442274;28;20025;-77
2023/02/03 08:29:23;;;;;;;7.83;2.53;;;;;;;;;;10442649;28;20153;-74
2023/02/03 08:34:23;;;;;;;4.37;1.83;;;;;;;;;;10442466;28;20028;-77
2023/02/03 08:39:24;;;;;;;4.00;2.17;;;;;;;;;;10443627;28;20025;-76
2023/02/03 08:44:24;;;;;;;2.40;1.77;;;;;;;;;;10441859;28;20032;-73
2023/02/03 08:49:25;;;;;;;5.40;2.00;;;;;;;;;;10441745;28;20474;-72
2023/02/03 08:54:26;;;;;;;2.10;1.90;;;;;;;;;;10441455;28;20029;-76
2023/02/03 08:59:26;;;;;;;3.67;2.63;;;;;;;;;;10441682;28;20055;-76
2023/02/03 09:04:26;;;;;;;4.13;2.08;;;;;;;;;;10441506;28;20274;-76
2023/02/03 09:09:27;;;;;;;4.97;2.03;;;;;;;;;;10441318;28;20536;-73
2023/02/03 09:14:28;;;;;;;5.70;2.15;;;;;;;;;;10440733;28;20113;-73
2023/02/03 09:19:29;;;;;;;4.07;2.22;;;;;;;;;;10440566;28;20020;-72
2023/02/03 09:24:30;;;;;;;2.45;1.60;;;;;;;;;;10424053;28;20479;-73
2023/02/03 09:29:30;;;;;;;1.92;1.70;;;;;;;;;;10440041;28;20120;-77
2023/02/03 09:34:30;;;;;;;4.15;2.13;;;;;;;;;;10441452;28;20029;-71
2023/02/03 09:39:30;;;;;;;4.80;2.03;;;;;;;;;;10440210;28;20042;-72
2023/02/03 09:44:45;;;;;;;5.10;1.30;;;;;;;;;;10456638;28;20025;-76
2023/02/03 09:49:54;;;;;;;1.80;1.60;;;;;;;;;;10456516;28;20511;-71
2023/02/03 09:55:03;;;;;;;2.67;1.90;;;;;;;;;;10443933;28;20041;-77
2023/02/03 10:00:13;;;;;;;11.63;1.73;;;;;;;;;;10448074;28;20032;-73
2023/02/03 10:05:13;;;;;;;5.07;1.25;;;;;;;;;;10448561;28;20486;-77
2023/02/03 10:10:24;;;;;;;3.97;1.70;;;;;;;;;;10447834;28;20025;-78
2023/02/03 10:15:34;;;;;;;4.85;1.70;;;;;;;;;;10423566;28;20498;-76
2023/02/03 10:20:48;;;;;;;2.80;1.08;;;;;;;;;;10454578;28;20047;-75
2023/02/03 10:25:55;;;;;;;3.00;1.33;;;;;;;;;;10430586;28;20124;-78
2023/02/03 10:30:57;;;;;;;3.10;1.47;;;;;;;;;;10447167;28;20033;-77
2023/02/03 10:35:57;;;;;;;5.65;2.50;;;;;;;;;;10448174;28;20344;-71
2023/02/03 10:40:57;;;;;;;3.65;1.77;;;;;;;;;;10446663;28;20025;-73
2023/02/03 10:45:58;;;;;;;9.23;2.58;;;;;;;;;;10462816;28;20049;-72
2023/02/03 10:51:00;;;;;;;7.43;2.85;;;;;;;;;;10446466;28;20025;-72
2023/02/03 10:56:04;;;;;;;2.28;1.80;;;;;;;;;;10446173;28;20036;-77
2023/02/03 11:01:04;;;;;;;5.97;2.95;;;;;;;;;;10446362;28;20436;-73
2023/02/03 11:06:06;;;;;;;4.13;2.72;;;;;;;;;;10444638;28;20078;-78
2023/02/03 11:11:08;;;;;;;6.07;2.22;;;;;;;;;;10420251;28;20034;-75
2023/02/03 11:16:16;;;;;;;3.25;2.22;;;;;;;;;;10433686;28;20119;-76
2023/02/03 11:21:18;;;;;;;5.10;2.10;;;;;;;;;;10445709;28;20400;-75
2023/02/03 11:26:21;;;;;;;4.50;1.60;;;;;;;;;;10452636;28;20446;-71
2023/02/03 11:31:26;;;;;;;1.67;1.15;;;;;;;;;;10462004;28;20111;-73
2023/02/03 11:36:28;;;;;;;2.83;1.60;;;;;;;;;;10428243;28;20021;-80
2023/02/03 11:41:35;;;;;;;3.25;1.45;;;;;;;;;;10445886;28;20553;-72
2023/02/03 11:46:36;;;;;;;2.60;1.65;;;;;;;;;;10444495;28;20133;-73
2023/02/03 11:51:44;;;;;;;2.75;1.02;;;;;;;;;;10443261;28;20025;-73
2023/02/03 11:56:53;;;;;;;12.93;2.43;;;;;;;;;;10443778;28;20031;-72
2023/02/03 12:02:24;;;;;;;2.35;2.00;;;;;;;;;;10460299;28;20032;-73
2023/02/03 12:07:37;;;;;;;5.85;2.33;;;;;;;;;;10445213;28;20054;-76
2023/02/03 12:12:47;;;;;;;2.20;1.60;;;;;;;;;;10444299;28;20056;-79
2023/02/03 12:17:50;;;;;;;7.35;2.22;;;;;;;;;;10442689;28;20060;-75
2023/02/03 12:22:56;;;;;;;2.53;1.60;;;;;;;;;;10442410;28;20039;-73
2023/02/03 12:28:03;;;;;;;3.08;1.55;;;;;;;;;;10458988;28;20052;-70
2023/02/03 12:33:08;;;;;;;4.30;1.70;;;;;;;;;;10443535;28;20013;-76
2023/02/03 12:38:11;;;;;;;7.55;1.92;;;;;;;;;;10444599;28;20135;-76
2023/02/03 12:43:30;;;;;;;8.27;1.52;;;;;;;;;;10442038;28;20025;-72
2023/02/03 12:48:52;;;;;;;4.35;2.00;;;;;;;;;;10441525;28;20106;-74
2023/02/03 12:53:55;;;;;;;2.17;1.42;;;;;;;;;;10441245;28;20579;-72
2023/02/03 12:59:05;;;;;;;2.20;1.83;;;;;;;;;;10442554;28;20031;-78
2023/02/03 13:04:20;;;;;;;7.82;1.77;;;;;;;;;;10451626;28;20017;-75
2023/02/03 13:09:32;;;;;;;3.45;1.92;;;;;;;;;;10457484;28;20021;-77
2023/02/03 13:14:38;;;;;;;2.50;1.85;;;;;;;;;;10440760;28;20033;-77
2023/02/03 13:19:53;;;;;;;4.07;2.17;;;;;;;;;;10440710;28;20020;-73
2023/02/03 13:25:17;;;;;;;3.55;1.77;;;;;;;;;;10440077;28;20506;-77
2023/02/03 13:30:17;;;;;;;7.35;2.53;;;;;;;;;;10420121;28;20025;-76
2023/02/03 13:35:24;;;;;;;8.50;3.20;;;;;;;;;;10438090;28;20037;-71
2023/02/03 13:40:33;;;;;;;4.35;2.55;;;;;;;;;;10438841;28;20025;-76
2023/02/03 13:45:47;;;;;;;4.32;2.50;;;;;;;;;;10439516;28;20025;-76
2023/02/03 13:50:49;;;;;;;6.70;2.90;;;;;;;;;;10440094;28;20033;-76
2023/02/03 13:55:52;;;;;;;3.33;2.90;;;;;;;;;;10438669;28;20017;-75
2023/02/03 14:00:53;;;;;;;7.47;2.90;;;;;;;;;;10439064;28;20045;-76
2023/02/03 14:05:54;;;;;;;11.55;3.38;;;;;;;;;;10440701;28;20136;-77
2023/02/03 14:11:13;;;;;;;9.48;5.40;;;;;;;;;;10438344;28;20021;-74
2023/02/03 14:16:21;;;;;;;5.55;3.20;;;;;;;;;;10438248;28;20090;-74
2023/02/03 14:21:23;;;;;;;3.92;3.20;;;;;;;;;;10439007;28;20025;-75
2023/02/03 14:26:43;;;;;;;5.30;3.58;;;;;;;;;;10438479;28;20028;-72
2023/02/03 14:32:00;;;;;;;7.18;3.40;;;;;;;;;;10437834;28;20029;-72
2023/02/03 14:37:21;;;;;;;16.50;4.00;;;;;;;;;;10438194;28;20020;-74
2023/02/03 14:42:21;;;;;;;7.65;4.00;;;;;;;;;;10445339;28;20114;-71
2023/02/03 14:48:01;;;;;;;8.52;2.97;;;;;;;;;;10446573;28;20110;-76
2023/02/03 14:53:01;;;;;;;5.30;3.28;;;;;;;;;;10301120;28;20038;-76
2023/02/03 14:58:12;;;;;;;8.05;3.72;;;;;;;;;;10423512;28;20044;-73
2023/02/03 15:03:17;;;;;;;7.38;3.28;;;;;;;;;;10443873;28;20426;-70
2023/02/03 15:08:51;;;;;;;8.50;3.70;;;;;;;;;;10450369;28;20025;-77
2023/02/03 15:13:53;;;;;;;7.80;3.53;;;;;;;;;;10398718;28;20040;-72
2023/02/03 15:19:08;;;;;;;3.67;3.28;;;;;;;;;;10435674;28;20078;-76
2023/02/03 15:24:11;;;;;;;4.32;3.63;;;;;;;;;;10442344;28;20029;-71
2023/02/03 15:29:20;;;;;;;8.57;4.10;;;;;;;;;;10445201;28;20037;-73
2023/02/03 15:34:38;;;;;;;12.50;3.53;;;;;;;;;;10442182;28;20541;-76
2023/02/03 15:39:41;;;;;;;7.95;3.45;;;;;;;;;;10454111;28;20040;-71
2023/02/03 15:45:02;;;;;;;4.82;3.65;;;;;;;;;;10444116;28;20040;-71
2023/02/03 15:50:08;;;;;;;12.57;4.07;;;;;;;;;;10455920;28;20063;-74
2023/02/03 15:55:14;;;;;;;10.07;4.38;;;;;;;;;;10437912;28;20031;-72
2023/02/03 16:00:26;;;;;;;12.27;3.80;;;;;;;;;;10443267;28;20036;-75
2023/02/03 16:05:31;;;;;;;7.30;4.00;;;;;;;;;;10443043;28;20101;-72
2023/02/03 16:10:32;;;;;;;5.65;4.00;;;;;;;;;;10441998;28;20040;-74
2023/02/03 16:15:32;;;;;;;6.15;3.65;;;;;;;;;;10451492;28;20502;-77
2023/02/03 16:20:32;;;;;;;8.67;4.27;;;;;;;;;;10441348;28;20021;-78
2023/02/03 16:25:33;;;;;;;11.53;4.43;;;;;;;;;;10441816;28;20116;-78
2023/02/03 16:51:52;;;;;;;5.38;2.60;;;;;;;;;;10433358;28;20032;-74
2023/02/03 16:56:55;;;;;;;5.30;3.22;;;;;;;;;;10432087;28;20041;-74
2023/02/03 17:01:55;;;;;;;5.47;3.45;;;;;;;;;;10441024;28;20475;-72
2023/02/03 17:06:56;;;;;;;8.38;5.22;;;;;;;;;;10436408;28;20406;-74
2023/02/03 17:11:57;;;;;;;15.25;5.88;;;;;;;;;;10435351;28;20490;-70
2023/02/03 17:16:57;;;;;;;11.77;5.20;;;;;;;;;;10433526;28;20056;-72
2023/02/03 17:21:57;;;;;;;13.73;4.53;;;;;;;;;;10441805;28;20626;-72
2023/02/03 17:26:58;;;;;;;13.45;6.72;;;;;;;;;;10435506;28;20041;-74
2023/02/03 17:31:58;;;;;;;7.57;4.47;;;;;;;;;;10434697;28;20025;-74
2023/02/03 17:36:58;;;;;;;10.80;5.65;;;;;;;;;;10448710;28;20025;-72
2023/02/03 17:41:58;;;;;;;17.63;4.85;;;;;;;;;;10437769;28;20021;-74
2023/02/03 17:46:59;;;;;;;11.50;5.07;;;;;;;;;;10443203;28;20502;-72
2023/02/03 17:51:59;;;;;;;14.20;4.65;;;;;;;;;;10449892;28;20033;-74
2023/02/03 17:56:59;;;;;;;9.07;4.13;;;;;;;;;;10433905;28;20040;-72
2023/02/03 18:02:00;;;;;;;10.05;5.05;;;;;;;;;;10420895;28;20031;-72
2023/02/03 18:07:00;;;;;;;24.10;5.50;;;;;;;;;;10428752;28;20040;-71
2023/02/03 18:12:00;;;;;;;11.60;5.70;;;;;;;;;;10435795;28;20032;-71
2023/02/03 18:17:01;;;;;;;20.05;7.10;;;;;;;;;;10427181;28;20037;-75
2023/02/03 18:22:01;;;;;;;19.88;7.45;;;;;;;;;;10434680;28;20537;-78
2023/02/03 18:27:02;;;;;;;17.63;7.90;;;;;;;;;;10429754;28;20052;-72
2023/02/03 18:32:03;;;;;;;18.65;8.80;;;;;;;;;;10455965;28;20112;-72
2023/02/03 18:37:03;;;;;;;24.42;10.77;;;;;;;;;;10442087;28;20021;-74
2023/02/03 18:42:05;;;;;;;18.95;8.93;;;;;;;;;;10431221;28;20102;-70
2023/02/03 18:47:06;;;;;;;21.17;9.25;;;;;;;;;;10434889;28;20456;-73
2023/02/03 18:52:06;;;;;;;18.05;8.55;;;;;;;;;;10436555;28;20031;-72
2023/02/03 18:57:11;;;;;;;14.30;7.63;;;;;;;;;;10430191;28;20032;-70
2023/02/03 19:02:12;;;;;;;17.90;9.07;;;;;;;;;;10431896;28;20469;-70
2023/02/03 19:07:12;;;;;;;30.10;14.40;;;;;;;;;;10433333;28;20025;-72
2023/02/03 19:12:12;;;;;;;32.13;16.83;;;;;;;;;;10433070;28;20021;-74
2023/02/03 19:17:13;;;;;;;31.33;17.27;;;;;;;;;;10429178;28;20032;-75
2023/02/03 19:22:13;;;;;;;28.77;13.13;;;;;;;;;;10427413;28;20028;-80
2023/02/03 19:27:14;;;;;;;34.05;15.82;;;;;;;;;;10421295;28;20029;-77
2023/02/03 19:32:14;;;;;;;28.20;14.77;;;;;;;;;;10440892;28;20017;-71
2023/02/03 19:37:14;;;;;;;29.67;14.88;;;;;;;;;;10449614;28;20037;-74
2023/02/03 19:42:15;;;;;;;32.83;17.13;;;;;;;;;;10447593;28;20040;-71
2023/02/03 19:47:15;;;;;;;34.47;18.23;;;;;;;;;;10439908;28;20051;-71
2023/02/03 19:52:16;;;;;;;32.47;17.50;;;;;;;;;;10457725;28;20066;-74
2023/02/03 19:57:16;;;;;;;39.57;17.57;;;;;;;;;;10440834;28;20163;-77
2023/02/03 20:02:16;;;;;;;32.58;17.20;;;;;;;;;;10440230;28;20040;-73
2023/02/03 20:07:17;;;;;;;37.73;16.07;;;;;;;;;;10441862;28;20040;-78
2023/02/03 20:12:17;;;;;;;32.33;15.13;;;;;;;;;;10438779;28;20268;-76
2023/02/03 20:17:18;;;;;;;27.63;14.50;;;;;;;;;;10439309;28;20024;-73
2023/02/03 20:22:18;;;;;;;40.67;16.85;;;;;;;;;;10433802;28;20044;-71
2023/02/03 20:27:19;;;;;;;34.58;18.00;;;;;;;;;;10443839;28;20099;-73
2023/02/03 20:32:19;;;;;;;38.33;17.27;;;;;;;;;;10434973;28;20021;-76
2023/02/03 20:37:20;;;;;;;31.88;16.65;;;;;;;;;;10439510;28;20571;-76
2023/02/03 20:42:20;;;;;;;31.45;14.15;;;;;;;;;;10436843;28;20511;-77
2023/02/03 20:47:21;;;;;;;31.13;14.48;;;;;;;;;;10427436;28;20053;-74
2023/02/03 20:52:22;;;;;;;23.58;13.77;;;;;;;;;;10427094;28;20029;-75
2023/02/03 20:57:22;;;;;;;26.38;12.23;;;;;;;;;;10434862;28;20091;-74
2023/02/03 21:02:32;;;;;;;22.90;11.65;;;;;;;;;;10439564;28;20506;-76
2023/02/03 21:07:32;;;;;;;27.83;13.23;;;;;;;;;;10438797;28;20024;-76
2023/02/03 21:12:33;;;;;;;30.67;15.80;;;;;;;;;;10438986;28;20017;-71
2023/02/03 21:17:34;;;;;;;32.75;13.77;;;;;;;;;;10434915;28;20017;-75
2023/02/03 21:22:34;;;;;;;31.15;14.55;;;;;;;;;;10428263;28;20021;-73
2023/02/03 21:27:35;;;;;;;26.00;12.60;;;;;;;;;;10438869;28;20021;-78
2023/02/03 21:32:39;;;;;;;32.25;12.30;;;;;;;;;;10432077;28;20085;-75
2023/02/03 21:37:40;;;;;;;21.73;10.43;;;;;;;;;;10435849;28;20028;-73
2023/02/03 21:42:40;;;;;;;24.45;11.63;;;;;;;;;;10437596;28;20028;-72
2023/02/03 21:47:41;;;;;;;21.05;10.70;;;;;;;;;;10436343;28;20048;-75
2023/02/03 21:52:41;;;;;;;22.58;10.77;;;;;;;;;;10449767;28;20115;-74
2023/02/03 21:57:41;;;;;;;22.90;10.65;;;;;;;;;;10450978;28;20772;-75
2023/02/03 22:02:54;;;;;;;29.70;12.32;;;;;;;;;;10451674;28;20577;-77
2023/02/03 22:07:54;;;;;;;26.70;12.52;;;;;;;;;;10451518;28;20094;-76
2023/02/03 22:12:55;;;;;;;20.83;10.23;;;;;;;;;;10451228;28;20087;-75
2023/02/03 22:17:55;;;;;;;22.30;10.90;;;;;;;;;;10441129;28;20020;-74
2023/02/03 22:22:55;;;;;;;27.65;10.85;;;;;;;;;;10449951;28;20048;-74
2023/02/03 22:27:55;;;;;;;21.85;11.93;;;;;;;;;;10449664;28;20087;-74
2023/02/03 22:32:56;;;;;;;22.57;11.97;;;;;;;;;;10454890;28;20020;-77
2023/02/03 22:37:57;;;;;;;22.48;11.00;;;;;;;;;;10454467;28;20396;-73
2023/02/03 22:42:57;;;;;;;22.92;9.77;;;;;;;;;;10450687;28;20033;-74
2023/02/03 22:47:59;;;;;;;23.10;10.23;;;;;;;;;;10450895;28;20045;-75
2023/02/03 22:52:59;;;;;;;19.75;9.38;;;;;;;;;;10450128;28;20037;-74
2023/02/03 22:57:59;;;;;;;17.85;9.43;;;;;;;;;;10450082;28;20024;-77
2023/02/03 23:02:59;;;;;;;28.85;10.52;;;;;;;;;;10433477;28;20111;-75
2023/02/03 23:08:00;;;;;;;17.23;8.23;;;;;;;;;;10442828;28;20021;-76
2023/02/03 23:13:00;;;;;;;17.23;8.17;;;;;;;;;;10443362;28;20033;-73
2023/02/03 23:18:00;;;;;;;15.90;6.30;;;;;;;;;;10443651;28;20279;-73
2023/02/03 23:23:01;;;;;;;12.15;5.55;;;;;;;;;;10442549;28;20079;-74
2023/02/03 23:28:01;;;;;;;12.40;5.73;;;;;;;;;;10451154;28;20040;-72
2023/02/03 23:33:01;;;;;;;11.18;5.38;;;;;;;;;;10448597;28;20025;-70
2023/02/03 23:38:02;;;;;;;11.23;6.68;;;;;;;;;;10443096;28;20110;-77
2023/02/03 23:43:02;;;;;;;12.05;6.20;;;;;;;;;;10445157;28;20029;-76
2023/02/03 23:48:02;;;;;;;13.35;7.15;;;;;;;;;;10439380;28;20079;-73
2023/02/03 23:53:03;;;;;;;18.80;8.02;;;;;;;;;;10447107;28;20029;-72
2023/02/03 23:58:03;;;;;;;14.60;7.87;;;;;;;;;;10441759;28;20510;-77
